Time;durP1;ratioP1;P1;durP2;ratioP2;P2;SDS_P1;SDS_P2;PMS_P1;PMS_P2;Temp;Humidity;BMP_temperature;BMP_pressure;BME280_temperature;BME280_humidity;BME280_pressure;Samples;Min_cycle;Max_cycle;Signal;HPM_P1;HPM_P2
2021/12/24 00:01:51;;;;;;;46.22;20.02;;;;;;;;;;5101936;28;20127;-75
2021/12/24 00:04:17;;;;;;;69.40;22.10;;;;;;;;;;5096133;28;20028;-76
2021/12/24 00:06:43;;;;;;;63.78;21.67;;;;;;;;;;5095939;28;20442;-76
2021/12/24 00:09:09;;;;;;;86.10;23.75;;;;;;;;;;5107760;28;20024;-76
2021/12/24 00:11:36;;;;;;;71.93;22.83;;;;;;;;;;5101456;28;20032;-75
2021/12/24 00:14:05;;;;;;;61.42;21.05;;;;;;;;;;5097752;28;20072;-76
2021/12/24 00:16:45;;;;;;;72.38;22.55;;;;;;;;;;5099699;28;20385;-75
2021/12/24 00:35:34;;;;;;;39.63;17.23;;;;;;;;;;5104617;27;20393;-76
2021/12/24 00:38:03;;;;;;;40.85;17.00;;;;;;;;;;5112917;28;20028;-75
2021/12/24 00:40:30;;;;;;;44.13;17.48;;;;;;;;;;5099232;28;20034;-75
2021/12/24 00:42:57;;;;;;;48.38;17.60;;;;;;;;;;5079546;28;20051;-75
2021/12/24 00:45:25;;;;;;;42.00;17.92;;;;;;;;;;5103847;28;23547;-76
2021/12/24 00:47:51;;;;;;;45.75;17.20;;;;;;;;;;5108704;28;20019;-76
2021/12/24 00:50:21;;;;;;;43.67;16.58;;;;;;;;;;5098046;28;20131;-76
2021/12/24 00:52:49;;;;;;;68.35;19.80;;;;;;;;;;5105956;27;20023;-74
2021/12/24 00:55:19;;;;;;;78.57;19.70;;;;;;;;;;5081391;28;20036;-76
2021/12/24 00:57:47;;;;;;;52.75;18.45;;;;;;;;;;5102578;28;20043;-74
2021/12/24 01:00:16;;;;;;;56.80;18.90;;;;;;;;;;5111738;28;20019;-75
2021/12/24 01:02:42;;;;;;;55.67;18.63;;;;;;;;;;5103180;28;20470;-76
2021/12/24 01:05:09;;;;;;;63.30;19.77;;;;;;;;;;5111277;28;20031;-75
2021/12/24 01:07:35;;;;;;;72.95;20.98;;;;;;;;;;5105539;28;20093;-75
2021/12/24 01:10:01;;;;;;;95.20;21.50;;;;;;;;;;5111671;27;20024;-76
2021/12/24 01:12:27;;;;;;;66.78;21.27;;;;;;;;;;5098681;28;20028;-75
2021/12/24 01:14:53;;;;;;;132.88;24.75;;;;;;;;;;5108334;28;20039;-75
2021/12/24 01:19:50;;;;;;;104.40;23.67;;;;;;;;;;5108792;28;20039;-74
2021/12/24 01:24:58;;;;;;;85.30;22.58;;;;;;;;;;5093527;28;20039;-74
2021/12/24 01:38:17;;;;;;;77.23;21.80;;;;;;;;;;5079048;28;20028;-74
2021/12/24 01:43:22;;;;;;;59.63;18.85;;;;;;;;;;5103358;27;20449;-74
2021/12/24 01:45:50;;;;;;;67.65;20.25;;;;;;;;;;5100854;28;20028;-75
2021/12/24 01:48:16;;;;;;;84.50;20.77;;;;;;;;;;5103711;28;20032;-75
2021/12/24 01:50:42;;;;;;;85.03;21.45;;;;;;;;;;5108966;28;20038;-75
2021/12/24 01:53:10;;;;;;;83.68;21.15;;;;;;;;;;5106392;28;20043;-75
2021/12/24 01:55:37;;;;;;;85.82;20.30;;;;;;;;;;5101503;28;20401;-75
2021/12/24 01:58:03;;;;;;;84.28;20.00;;;;;;;;;;5098895;28;20032;-75
2021/12/24 02:00:31;;;;;;;88.22;18.98;;;;;;;;;;5089492;28;20044;-74
2021/12/24 02:02:57;;;;;;;93.50;20.40;;;;;;;;;;5104818;28;20031;-75
2021/12/24 02:05:24;;;;;;;91.47;19.63;;;;;;;;;;5105967;27;20047;-75
2021/12/24 02:07:50;;;;;;;81.07;17.38;;;;;;;;;;5109833;28;20119;-75
2021/12/24 02:10:18;;;;;;;78.32;16.70;;;;;;;;;;5089558;28;20036;-74
2021/12/24 02:12:44;;;;;;;76.50;17.23;;;;;;;;;;5095602;28;20020;-75
2021/12/24 02:15:20;;;;;;;73.03;15.77;;;;;;;;;;5102264;28;20024;-74
2021/12/24 02:28:39;;;;;;;98.65;18.60;;;;;;;;;;5098395;28;20043;-74
2021/12/24 02:31:25;;;;;;;100.07;18.40;;;;;;;;;;5101623;28;20406;-75
2021/12/24 02:33:52;;;;;;;84.72;17.90;;;;;;;;;;5100835;28;20627;-75
2021/12/24 02:36:20;;;;;;;117.22;21.05;;;;;;;;;;5107877;28;20111;-75
2021/12/24 02:38:46;;;;;;;96.80;20.50;;;;;;;;;;5103423;28;20024;-74
2021/12/24 02:41:13;;;;;;;121.10;22.15;;;;;;;;;;5095056;28;20028;-75
2021/12/24 02:43:39;;;;;;;106.80;20.02;;;;;;;;;;5103424;28;20065;-75
2021/12/24 02:46:12;;;;;;;96.68;19.80;;;;;;;;;;5104479;28;20035;-75
2021/12/24 02:54:05;;;;;;;101.80;20.65;;;;;;;;;;5103681;28;20070;-75
2021/12/24 02:56:33;;;;;;;112.38;21.90;;;;;;;;;;5106747;28;20031;-75
2021/12/24 02:59:00;;;;;;;126.53;22.45;;;;;;;;;;5096484;28;20392;-75
2021/12/24 03:01:28;;;;;;;110.30;23.17;;;;;;;;;;5103586;28;20034;-74
2021/12/24 03:03:54;;;;;;;111.55;22.27;;;;;;;;;;5097239;28;20107;-74
2021/12/24 03:06:21;;;;;;;96.93;21.27;;;;;;;;;;5089461;28;20031;-75
2021/12/24 03:08:47;;;;;;;88.00;20.25;;;;;;;;;;5106031;28;20036;-75
2021/12/24 03:11:14;;;;;;;98.63;21.90;;;;;;;;;;5105000;28;20489;-75
2021/12/24 03:13:41;;;;;;;87.22;20.70;;;;;;;;;;5098842;28;20119;-75
2021/12/24 03:16:07;;;;;;;93.43;20.73;;;;;;;;;;5099835;28;20027;-75
2021/12/24 03:18:36;;;;;;;101.85;22.30;;;;;;;;;;5108788;28;20035;-75
2021/12/24 03:23:40;;;;;;;92.75;22.10;;;;;;;;;;5093346;28;20035;-75
2021/12/24 03:26:07;;;;;;;104.72;23.45;;;;;;;;;;5099313;28;21424;-75
2021/12/24 03:28:33;;;;;;;102.22;23.23;;;;;;;;;;5081582;28;20045;-75
2021/12/24 03:31:00;;;;;;;90.47;23.25;;;;;;;;;;5101256;28;20016;-75
2021/12/24 03:33:26;;;;;;;93.70;23.70;;;;;;;;;;5108605;28;20168;-75
2021/12/24 03:35:53;;;;;;;101.43;24.33;;;;;;;;;;5080010;28;20115;-75
2021/12/24 03:38:19;;;;;;;110.53;26.50;;;;;;;;;;5097092;28;20031;-77
2021/12/24 03:40:45;;;;;;;116.45;27.33;;;;;;;;;;5099361;28;20097;-77
2021/12/24 03:43:11;;;;;;;115.45;28.13;;;;;;;;;;5069423;28;20043;-81
2021/12/24 03:45:47;;;;;;;114.65;28.48;;;;;;;;;;5100502;28;20039;-75
2021/12/24 03:48:22;;;;;;;122.38;32.15;;;;;;;;;;5095447;28;20031;-78
2021/12/24 03:51:06;;;;;;;114.53;29.48;;;;;;;;;;5111140;28;20031;-75
2021/12/24 03:56:16;;;;;;;135.52;34.00;;;;;;;;;;5106806;28;20609;-75
2021/12/24 03:58:43;;;;;;;132.40;33.83;;;;;;;;;;5098144;28;20032;-76
2021/12/24 04:01:10;;;;;;;123.43;34.70;;;;;;;;;;5080044;28;20034;-75
2021/12/24 04:03:36;;;;;;;116.32;32.47;;;;;;;;;;5105133;28;20366;-75
2021/12/24 04:06:02;;;;;;;109.20;33.35;;;;;;;;;;5103583;28;20024;-75
2021/12/24 04:08:28;;;;;;;115.68;34.53;;;;;;;;;;5113572;28;20393;-76
2021/12/24 04:10:54;;;;;;;119.05;32.55;;;;;;;;;;5107150;28;20118;-75
2021/12/24 04:13:20;;;;;;;115.25;31.38;;;;;;;;;;5119011;27;20050;-75
2021/12/24 04:15:46;;;;;;;88.65;28.80;;;;;;;;;;5110667;27;20103;-75
2021/12/24 04:18:33;;;;;;;109.85;31.05;;;;;;;;;;5105853;28;20395;-75
2021/12/24 04:26:31;;;;;;;96.80;28.02;;;;;;;;;;5101137;28;20097;-75
2021/12/24 04:28:58;;;;;;;93.50;28.27;;;;;;;;;;5105761;28;20385;-76
2021/12/24 04:31:31;;;;;;;87.90;28.67;;;;;;;;;;5083904;28;20104;-76
2021/12/24 04:34:02;;;;;;;74.35;27.35;;;;;;;;;;5106104;27;20474;-76
2021/12/24 05:03:11;;;;;;;94.43;27.92;;;;;;;;;;5101846;28;20123;-76
2021/12/24 05:10:38;;;;;;;79.25;25.83;;;;;;;;;;5104572;28;20379;-76
2021/12/24 05:13:05;;;;;;;70.40;24.00;;;;;;;;;;5102226;28;20015;-76
2021/12/24 05:15:34;;;;;;;75.50;23.95;;;;;;;;;;5107472;28;20015;-76
2021/12/24 05:23:10;;;;;;;76.85;22.10;;;;;;;;;;5111292;27;20105;-76
2021/12/24 05:25:41;;;;;;;61.13;18.83;;;;;;;;;;5102380;28;20520;-76
2021/12/24 05:28:07;;;;;;;69.18;19.20;;;;;;;;;;5109874;28;20038;-75
2021/12/24 05:30:33;;;;;;;64.32;19.55;;;;;;;;;;5083059;28;20032;-75
2021/12/24 05:32:59;;;;;;;66.45;18.00;;;;;;;;;;5086812;28;20055;-76
2021/12/24 05:35:25;;;;;;;66.93;17.52;;;;;;;;;;5103465;28;20044;-76
2021/12/24 05:37:51;;;;;;;64.13;16.77;;;;;;;;;;5098929;28;20039;-75
2021/12/24 05:40:17;;;;;;;63.50;16.85;;;;;;;;;;5086555;27;20031;-75
2021/12/24 05:42:43;;;;;;;56.33;16.08;;;;;;;;;;5105404;27;20035;-76
2021/12/24 05:45:10;;;;;;;51.72;15.40;;;;;;;;;;5101448;28;20028;-75
2021/12/24 05:47:37;;;;;;;57.83;15.23;;;;;;;;;;5101587;28;20027;-76
2021/12/24 05:50:05;;;;;;;51.75;13.88;;;;;;;;;;5101376;28;20106;-76
2021/12/24 05:52:31;;;;;;;60.58;13.25;;;;;;;;;;5088807;28;20173;-77
2021/12/24 05:54:57;;;;;;;54.42;13.00;;;;;;;;;;5098594;28;20031;-76
2021/12/24 05:57:24;;;;;;;55.83;12.57;;;;;;;;;;5094521;28;20105;-76
2021/12/24 05:59:50;;;;;;;41.10;12.32;;;;;;;;;;5096536;28;20043;-76
2021/12/24 06:02:16;;;;;;;42.47;11.07;;;;;;;;;;5099615;28;20035;-77
2021/12/24 06:04:42;;;;;;;66.95;15.07;;;;;;;;;;5104077;28;20085;-76
2021/12/24 06:07:08;;;;;;;45.08;12.45;;;;;;;;;;5104439;28;20059;-76
2021/12/24 06:09:34;;;;;;;47.20;12.43;;;;;;;;;;5094337;28;20032;-76
2021/12/24 06:12:00;;;;;;;57.53;11.70;;;;;;;;;;5099928;28;20421;-76
2021/12/24 06:14:26;;;;;;;53.50;11.35;;;;;;;;;;5104802;28;20406;-75
2021/12/24 06:17:04;;;;;;;53.58;11.35;;;;;;;;;;5084863;28;20036;-76
2021/12/24 06:19:30;;;;;;;59.83;10.85;;;;;;;;;;5105547;28;20042;-76
2021/12/24 06:21:57;;;;;;;43.03;10.55;;;;;;;;;;5113744;27;20031;-76
2021/12/24 06:24:23;;;;;;;42.72;9.32;;;;;;;;;;5094549;28;20023;-76
2021/12/24 06:26:50;;;;;;;58.33;11.45;;;;;;;;;;5081512;28;20048;-75
2021/12/24 06:29:17;;;;;;;43.03;9.77;;;;;;;;;;5082954;28;20028;-75
2021/12/24 06:31:43;;;;;;;45.92;11.00;;;;;;;;;;5100462;28;20375;-76
2021/12/24 06:34:10;;;;;;;49.13;12.48;;;;;;;;;;5103731;28;20028;-76
2021/12/24 06:36:40;;;;;;;55.63;18.08;;;;;;;;;;5069846;28;20059;-76
2021/12/24 06:39:06;;;;;;;75.32;20.42;;;;;;;;;;5102625;28;20500;-75
2021/12/24 06:41:32;;;;;;;87.38;29.08;;;;;;;;;;5102252;28;20050;-76
2021/12/24 06:43:58;;;;;;;56.15;15.57;;;;;;;;;;5103497;28;20023;-76
2021/12/24 06:46:24;;;;;;;50.08;11.95;;;;;;;;;;5100934;28;20148;-76
2021/12/24 06:48:56;;;;;;;38.92;8.55;;;;;;;;;;5083643;28;20102;-75
2021/12/24 06:51:22;;;;;;;37.13;8.23;;;;;;;;;;5110755;28;20131;-76
2021/12/24 06:53:48;;;;;;;35.60;8.07;;;;;;;;;;5100623;28;20043;-75
2021/12/24 06:56:14;;;;;;;36.92;8.32;;;;;;;;;;5084208;28;20035;-75
2021/12/24 06:58:40;;;;;;;64.47;10.57;;;;;;;;;;5098529;28;20501;-75
2021/12/24 07:01:06;;;;;;;42.17;8.30;;;;;;;;;;5099291;28;20439;-76
2021/12/24 07:03:33;;;;;;;43.85;9.63;;;;;;;;;;5090142;28;20026;-75
2021/12/24 07:05:59;;;;;;;36.55;8.07;;;;;;;;;;5102159;28;20031;-75
2021/12/24 07:08:25;;;;;;;37.20;7.07;;;;;;;;;;5078233;27;20402;-74
2021/12/24 07:10:52;;;;;;;43.97;9.52;;;;;;;;;;5094340;28;20053;-74
2021/12/24 07:13:18;;;;;;;49.05;8.27;;;;;;;;;;5090227;28;20057;-75
2021/12/24 07:15:44;;;;;;;44.13;8.43;;;;;;;;;;5106200;28;20027;-75
2021/12/24 07:18:10;;;;;;;26.90;6.80;;;;;;;;;;5078113;28;20036;-75
2021/12/24 07:20:36;;;;;;;35.30;6.60;;;;;;;;;;5103282;28;20157;-74
2021/12/24 07:23:02;;;;;;;37.15;7.47;;;;;;;;;;5111818;28;20076;-75
2021/12/24 07:25:28;;;;;;;34.63;8.25;;;;;;;;;;5102415;28;20107;-74
2021/12/24 07:27:54;;;;;;;27.02;7.95;;;;;;;;;;5111599;28;20047;-75
2021/12/24 07:30:21;;;;;;;30.73;7.65;;;;;;;;;;5085647;28;20395;-76
2021/12/24 07:32:48;;;;;;;29.73;6.47;;;;;;;;;;5082381;28;20584;-79
2021/12/24 07:35:14;;;;;;;40.05;7.28;;;;;;;;;;5099402;28;20027;-78
2021/12/24 07:37:41;;;;;;;28.13;5.88;;;;;;;;;;5100572;28;20032;-78
2021/12/24 07:40:08;;;;;;;25.38;5.55;;;;;;;;;;5104937;27;20036;-77
2021/12/24 07:42:34;;;;;;;32.22;5.90;;;;;;;;;;5104246;28;20101;-78
2021/12/24 07:45:00;;;;;;;25.15;5.18;;;;;;;;;;5084342;28;20495;-88
2021/12/24 07:47:35;;;;;;;28.83;7.53;;;;;;;;;;5096890;28;20035;-79
2021/12/24 07:50:04;;;;;;;27.70;5.25;;;;;;;;;;5078846;28;20123;-78
2021/12/24 07:52:31;;;;;;;31.67;6.57;;;;;;;;;;5085205;28;20028;-78
2021/12/24 07:54:57;;;;;;;37.05;6.10;;;;;;;;;;5098836;28;20112;-78
2021/12/24 07:57:24;;;;;;;29.88;6.63;;;;;;;;;;5102221;28;20037;-77
2021/12/24 07:59:51;;;;;;;33.25;5.20;;;;;;;;;;5106485;28;20030;-77
2021/12/24 08:02:18;;;;;;;41.25;6.28;;;;;;;;;;5102702;28;20437;-77
2021/12/24 08:04:46;;;;;;;35.28;5.50;;;;;;;;;;5103936;28;20028;-77
2021/12/24 08:07:13;;;;;;;27.45;4.72;;;;;;;;;;5107881;28;20028;-77
2021/12/24 08:09:39;;;;;;;26.50;4.72;;;;;;;;;;5099314;28;20019;-78
2021/12/24 08:12:06;;;;;;;31.60;6.13;;;;;;;;;;5106481;28;20046;-80
2021/12/24 08:14:32;;;;;;;34.88;5.38;;;;;;;;;;5102838;28;20490;-78
2021/12/24 08:16:59;;;;;;;33.65;5.38;;;;;;;;;;5105685;28;20036;-76
2021/12/24 08:19:25;;;;;;;31.63;5.47;;;;;;;;;;5099292;28;20501;-75
2021/12/24 08:21:51;;;;;;;28.50;4.72;;;;;;;;;;5098858;28;20039;-76
2021/12/24 08:24:17;;;;;;;29.20;6.10;;;;;;;;;;5082190;28;20031;-76
2021/12/24 08:26:44;;;;;;;34.55;6.15;;;;;;;;;;5099364;28;20070;-76
2021/12/24 08:29:10;;;;;;;46.17;5.65;;;;;;;;;;5102872;28;20102;-75
2021/12/24 08:31:36;;;;;;;32.78;5.50;;;;;;;;;;5106546;28;20016;-76
2021/12/24 08:34:04;;;;;;;46.65;6.70;;;;;;;;;;5092445;28;20598;-78
2021/12/24 08:36:30;;;;;;;39.92;5.40;;;;;;;;;;5069993;28;20032;-76
2021/12/24 08:38:56;;;;;;;40.88;6.95;;;;;;;;;;5086591;28;20394;-78
2021/12/24 08:41:23;;;;;;;33.05;6.65;;;;;;;;;;5079581;28;20032;-74
2021/12/24 08:43:50;;;;;;;68.05;19.23;;;;;;;;;;5106238;28;20035;-75
2021/12/24 08:46:16;;;;;;;36.13;5.45;;;;;;;;;;5082622;28;20031;-74
2021/12/24 08:48:42;;;;;;;37.75;6.55;;;;;;;;;;5102591;28;20031;-75
2021/12/24 08:51:08;;;;;;;40.10;5.38;;;;;;;;;;5100976;28;20050;-75
2021/12/24 08:53:34;;;;;;;30.83;5.63;;;;;;;;;;5111177;28;20414;-75
2021/12/24 08:56:02;;;;;;;43.90;6.47;;;;;;;;;;5085811;28;20044;-76
2021/12/24 08:58:28;;;;;;;30.85;6.30;;;;;;;;;;5108595;28;20047;-76
2021/12/24 09:00:54;;;;;;;34.00;5.18;;;;;;;;;;5085974;28;20985;-76
2021/12/24 09:03:20;;;;;;;46.40;6.90;;;;;;;;;;5111337;28;20138;-75
2021/12/24 09:05:46;;;;;;;40.95;4.82;;;;;;;;;;5105639;27;20046;-77
2021/12/24 09:08:13;;;;;;;46.10;6.22;;;;;;;;;;5108309;28;20162;-77
2021/12/24 09:10:39;;;;;;;35.75;5.93;;;;;;;;;;5084194;28;20371;-77
2021/12/24 09:13:05;;;;;;;41.25;6.70;;;;;;;;;;5105197;28;20031;-77
2021/12/24 09:15:31;;;;;;;40.60;5.60;;;;;;;;;;5104268;28;20032;-76
2021/12/24 09:18:02;;;;;;;33.30;4.90;;;;;;;;;;5091237;28;20047;-77
2021/12/24 09:20:35;;;;;;;35.97;6.40;;;;;;;;;;5109931;28;20028;-77
2021/12/24 09:23:02;;;;;;;42.28;6.07;;;;;;;;;;5109347;27;20035;-77
2021/12/24 09:25:28;;;;;;;40.58;6.10;;;;;;;;;;5109088;28;20036;-77
2021/12/24 09:27:55;;;;;;;27.52;6.78;;;;;;;;;;5103027;28;20044;-77
2021/12/24 09:30:21;;;;;;;45.97;6.95;;;;;;;;;;5107935;28;20024;-75
2021/12/24 09:32:47;;;;;;;33.97;8.52;;;;;;;;;;5104924;27;20065;-76
2021/12/24 09:35:13;;;;;;;38.03;7.32;;;;;;;;;;5100459;28;20094;-77
2021/12/24 09:37:40;;;;;;;40.05;7.00;;;;;;;;;;5100334;28;20036;-76
2021/12/24 09:40:07;;;;;;;43.17;6.68;;;;;;;;;;5102275;27;20032;-76
2021/12/24 09:42:34;;;;;;;32.78;6.93;;;;;;;;;;5106954;28;20399;-76
2021/12/24 09:45:00;;;;;;;42.97;6.18;;;;;;;;;;5102297;28;20500;-76
2021/12/24 09:47:26;;;;;;;41.78;7.57;;;;;;;;;;5102028;28;20118;-76
2021/12/24 09:49:52;;;;;;;43.92;7.55;;;;;;;;;;5106954;28;20376;-76
2021/12/24 09:52:19;;;;;;;44.10;7.85;;;;;;;;;;5102356;28;20439;-76
2021/12/24 09:54:46;;;;;;;36.95;8.05;;;;;;;;;;5105979;28;20028;-76
2021/12/24 09:57:12;;;;;;;36.08;6.93;;;;;;;;;;5111148;28;20427;-76
2021/12/24 09:59:38;;;;;;;26.02;5.57;;;;;;;;;;5104550;28;20106;-77
2021/12/24 10:02:08;;;;;;;32.28;6.35;;;;;;;;;;5084117;28;20414;-76
2021/12/24 10:04:35;;;;;;;30.90;5.22;;;;;;;;;;5104087;28;20032;-76
2021/12/24 10:07:03;;;;;;;22.83;4.85;;;;;;;;;;5085182;28;20028;-76
2021/12/24 10:09:34;;;;;;;31.65;4.47;;;;;;;;;;5109392;28;20019;-76
2021/12/24 10:12:01;;;;;;;25.42;4.65;;;;;;;;;;5101006;28;20044;-76
2021/12/24 10:14:51;;;;;;;3.47;1.55;;;;;;;;;;5103944;28;20043;-77
2021/12/24 10:17:18;;;;;;;2.40;0.75;;;;;;;;;;5067359;28;20040;-76
2021/12/24 10:19:49;;;;;;;1.17;0.65;;;;;;;;;;5101504;28;20024;-77
2021/12/24 10:22:16;;;;;;;1.20;0.70;;;;;;;;;;5094282;28;20035;-77
2021/12/24 10:24:42;;;;;;;1.77;0.77;;;;;;;;;;5087417;28;20443;-77
2021/12/24 10:27:08;;;;;;;1.20;0.60;;;;;;;;;;5088968;28;20485;-77
2021/12/24 10:29:38;;;;;;;0.70;0.68;;;;;;;;;;5102201;27;20074;-77
2021/12/24 10:32:10;;;;;;;1.10;0.75;;;;;;;;;;5091825;28;20397;-77
2021/12/24 10:34:37;;;;;;;4.30;3.15;;;;;;;;;;5100066;27;20696;-77
2021/12/24 10:37:30;;;;;;;2.72;2.08;;;;;;;;;;5077812;28;20093;-76
2021/12/24 10:39:58;;;;;;;1.30;0.88;;;;;;;;;;5101801;28;20455;-77
2021/12/24 10:42:35;;;;;;;1.90;1.30;;;;;;;;;;5106146;28;20027;-77
2021/12/24 10:45:02;;;;;;;1.27;0.90;;;;;;;;;;5103471;28;20055;-76
2021/12/24 10:47:35;;;;;;;2.97;0.68;;;;;;;;;;5108900;27;20056;-76
2021/12/24 10:50:12;;;;;;;0.70;0.70;;;;;;;;;;5106649;28;20544;-77
2021/12/24 10:55:31;;;;;;;2.10;0.90;;;;;;;;;;5107139;28;20050;-77
2021/12/24 10:57:59;;;;;;;1.08;0.98;;;;;;;;;;5101986;28;20064;-77
2021/12/24 11:00:34;;;;;;;1.20;0.90;;;;;;;;;;5099302;28;20036;-78
2021/12/24 11:03:02;;;;;;;1.65;1.20;;;;;;;;;;5086488;28;20023;-77
2021/12/24 11:05:30;;;;;;;0.93;0.88;;;;;;;;;;5109024;28;20024;-77
2021/12/24 11:07:57;;;;;;;1.10;1.00;;;;;;;;;;5082192;28;20023;-77
2021/12/24 11:10:25;;;;;;;1.58;1.08;;;;;;;;;;5097031;28;20072;-77
2021/12/24 11:12:55;;;;;;;2.97;1.65;;;;;;;;;;5101095;28;20527;-77
2021/12/24 11:15:29;;;;;;;2.75;0.90;;;;;;;;;;5087609;28;20020;-77
2021/12/24 11:17:57;;;;;;;2.05;1.60;;;;;;;;;;5098138;28;20035;-77
2021/12/24 11:20:23;;;;;;;3.45;1.95;;;;;;;;;;5082509;28;20031;-77
2021/12/24 11:22:50;;;;;;;3.03;1.85;;;;;;;;;;5102415;28;20113;-76
2021/12/24 11:25:16;;;;;;;4.32;2.00;;;;;;;;;;5101997;28;20093;-77
2021/12/24 11:27:42;;;;;;;3.83;2.35;;;;;;;;;;5095707;28;20119;-77
2021/12/24 11:30:08;;;;;;;2.05;1.50;;;;;;;;;;5099611;28;20062;-76
2021/12/24 11:32:36;;;;;;;2.85;1.35;;;;;;;;;;5108147;28;20024;-76
2021/12/24 11:35:02;;;;;;;1.55;1.40;;;;;;;;;;5100491;28;20538;-79
2021/12/24 11:37:29;;;;;;;12.25;7.78;;;;;;;;;;5107517;28;20061;-81
2021/12/24 11:39:56;;;;;;;22.15;12.57;;;;;;;;;;5105542;28;20023;-80
2021/12/24 11:42:22;;;;;;;4.53;3.25;;;;;;;;;;5105185;28;21999;-77
2021/12/24 11:44:49;;;;;;;3.08;2.25;;;;;;;;;;5081298;28;20036;-78
2021/12/24 11:47:15;;;;;;;3.03;1.58;;;;;;;;;;5105008;28;20036;-77
2021/12/24 11:49:41;;;;;;;2.08;1.70;;;;;;;;;;5101295;28;20047;-76
2021/12/24 11:52:08;;;;;;;1.75;1.60;;;;;;;;;;5084781;28;20085;-77
2021/12/24 11:54:34;;;;;;;3.03;2.20;;;;;;;;;;5095505;28;20024;-77
2021/12/24 11:57:00;;;;;;;3.40;1.45;;;;;;;;;;5088701;28;20074;-77
2021/12/24 11:59:36;;;;;;;3.45;1.65;;;;;;;;;;5102691;28;20034;-77
2021/12/24 12:02:03;;;;;;;2.10;1.65;;;;;;;;;;5101298;28;20040;-77
2021/12/24 12:04:29;;;;;;;3.13;2.17;;;;;;;;;;5104635;28;20031;-77
2021/12/24 12:07:10;;;;;;;2.75;1.95;;;;;;;;;;5086533;28;20036;-75
2021/12/24 12:09:43;;;;;;;3.55;1.92;;;;;;;;;;5107088;28;20076;-76
2021/12/24 12:12:14;;;;;;;2.50;1.73;;;;;;;;;;5113691;28;20059;-75
2021/12/24 12:14:41;;;;;;;6.07;2.97;;;;;;;;;;5084807;28;20024;-75
2021/12/24 12:17:08;;;;;;;4.22;2.10;;;;;;;;;;5096080;28;20046;-75
2021/12/24 12:22:43;;;;;;;3.42;2.17;;;;;;;;;;5094062;28;20081;-75
2021/12/24 12:25:10;;;;;;;5.18;2.20;;;;;;;;;;5094316;28;20580;-75
2021/12/24 12:27:57;;;;;;;2.55;1.77;;;;;;;;;;5103766;28;20096;-75
2021/12/24 12:30:25;;;;;;;1.98;1.63;;;;;;;;;;5110731;28;20073;-75
2021/12/24 12:32:52;;;;;;;2.15;1.95;;;;;;;;;;5106103;27;20480;-75
2021/12/24 12:35:18;;;;;;;2.42;1.58;;;;;;;;;;5100951;28;20032;-75
2021/12/24 12:37:52;;;;;;;3.63;1.73;;;;;;;;;;5107049;28;20032;-75
2021/12/24 12:40:18;;;;;;;2.15;1.80;;;;;;;;;;5107429;28;20024;-75
2021/12/24 12:45:20;;;;;;;2.97;1.88;;;;;;;;;;5106642;27;20035;-74
2021/12/24 12:47:57;;;;;;;3.22;1.70;;;;;;;;;;5102459;28;20028;-74
2021/12/24 12:50:24;;;;;;;3.70;1.80;;;;;;;;;;5103344;28;20081;-74
2021/12/24 12:52:54;;;;;;;8.30;1.90;;;;;;;;;;5095888;28;20031;-74
2021/12/24 12:55:40;;;;;;;3.95;2.10;;;;;;;;;;5104371;28;20024;-76
2021/12/24 12:58:25;;;;;;;18.45;13.80;;;;;;;;;;5113214;28;20081;-78
2021/12/24 13:01:07;;;;;;;8.02;3.20;;;;;;;;;;5099320;28;20439;-77
2021/12/24 13:03:34;;;;;;;3.00;2.60;;;;;;;;;;5105024;27;20106;-76
2021/12/24 13:06:00;;;;;;;2.75;2.05;;;;;;;;;;5106633;28;20040;-75
2021/12/24 13:08:27;;;;;;;6.25;3.10;;;;;;;;;;5103652;28;20588;-74
2021/12/24 13:10:58;;;;;;;3.75;2.08;;;;;;;;;;5094856;28;20362;-75
2021/12/24 13:13:25;;;;;;;4.60;2.42;;;;;;;;;;5106822;28;20087;-75
2021/12/24 13:15:51;;;;;;;2.17;1.98;;;;;;;;;;5099087;28;20035;-75
2021/12/24 13:18:33;;;;;;;2.10;1.88;;;;;;;;;;5106094;27;20034;-75
2021/12/24 13:23:33;;;;;;;3.17;2.00;;;;;;;;;;5103439;28;20047;-74
2021/12/24 13:26:14;;;;;;;3.33;1.85;;;;;;;;;;5105483;28;20028;-74
2021/12/24 13:28:59;;;;;;;4.93;1.70;;;;;;;;;;5105428;28;20055;-74
2021/12/24 13:31:26;;;;;;;2.80;1.30;;;;;;;;;;5107840;28;20024;-74
2021/12/24 13:33:52;;;;;;;3.72;1.80;;;;;;;;;;5101853;28;20032;-74
2021/12/24 13:36:28;;;;;;;5.80;2.20;;;;;;;;;;5109542;27;20338;-74
2021/12/24 13:39:06;;;;;;;3.03;1.83;;;;;;;;;;5101025;28;20089;-74
2021/12/24 13:41:32;;;;;;;6.15;2.05;;;;;;;;;;5100395;28;20024;-74
2021/12/24 13:43:58;;;;;;;3.50;2.10;;;;;;;;;;5104577;28;20429;-74
2021/12/24 13:46:27;;;;;;;1.90;1.60;;;;;;;;;;5102390;28;20486;-75
2021/12/24 13:56:41;;;;;;;3.35;1.80;;;;;;;;;;5097895;27;20570;-76
2021/12/24 13:59:08;;;;;;;3.67;1.92;;;;;;;;;;5100577;28;20030;-76
2021/12/24 14:01:34;;;;;;;4.90;1.83;;;;;;;;;;5086987;28;20028;-76
2021/12/24 14:04:04;;;;;;;4.30;2.47;;;;;;;;;;5087537;28;20040;-76
2021/12/24 14:06:40;;;;;;;3.17;1.70;;;;;;;;;;5089617;28;20032;-76
2021/12/24 14:09:11;;;;;;;15.25;7.00;;;;;;;;;;5102935;28;20050;-78
2021/12/24 14:11:37;;;;;;;6.30;2.45;;;;;;;;;;5106591;27;20053;-79
2021/12/24 14:14:09;;;;;;;18.20;6.43;;;;;;;;;;5103963;28;20012;-79
2021/12/24 14:17:04;;;;;;;2.72;2.20;;;;;;;;;;5101225;28;20481;-76
2021/12/24 14:19:43;;;;;;;2.38;1.38;;;;;;;;;;5091047;28;20051;-75
2021/12/24 14:22:11;;;;;;;2.22;1.30;;;;;;;;;;5097091;28;20080;-75
2021/12/24 14:24:37;;;;;;;4.47;1.30;;;;;;;;;;5106298;28;20084;-75
2021/12/24 14:27:06;;;;;;;2.92;1.33;;;;;;;;;;5080672;27;20047;-75
2021/12/24 14:29:39;;;;;;;4.65;1.95;;;;;;;;;;5106886;28;20073;-76
2021/12/24 14:32:13;;;;;;;4.72;1.60;;;;;;;;;;5105997;28;20032;-75
2021/12/24 14:34:44;;;;;;;7.30;1.98;;;;;;;;;;5110863;28;20031;-75
2021/12/24 14:37:11;;;;;;;3.90;2.20;;;;;;;;;;5108409;28;20525;-76
2021/12/24 14:39:39;;;;;;;8.35;2.00;;;;;;;;;;5104612;28;20035;-75
2021/12/24 14:42:28;;;;;;;2.97;1.60;;;;;;;;;;5103007;28;20264;-75
2021/12/24 14:45:15;;;;;;;4.78;2.00;;;;;;;;;;5087680;27;20040;-76
2021/12/24 14:47:41;;;;;;;6.55;1.35;;;;;;;;;;5088658;28;20076;-75
2021/12/24 14:50:09;;;;;;;3.15;1.30;;;;;;;;;;5110648;28;20020;-76
2021/12/24 14:52:36;;;;;;;4.35;2.60;;;;;;;;;;5088216;28;20177;-77
2021/12/24 14:55:22;;;;;;;5.43;3.45;;;;;;;;;;5110825;28;20016;-77
2021/12/24 14:57:49;;;;;;;3.08;1.25;;;;;;;;;;5078040;28;20056;-76
2021/12/24 15:00:17;;;;;;;4.32;0.93;;;;;;;;;;5102958;28;20085;-77
2021/12/24 15:02:46;;;;;;;5.13;0.82;;;;;;;;;;5105330;28;20436;-77
2021/12/24 15:05:12;;;;;;;1.65;0.60;;;;;;;;;;5085476;28;20039;-77
2021/12/24 15:07:38;;;;;;;2.08;0.95;;;;;;;;;;5103634;28;20111;-77
2021/12/24 15:10:11;;;;;;;3.05;0.80;;;;;;;;;;5107556;28;20028;-77
2021/12/24 15:12:48;;;;;;;1.98;0.60;;;;;;;;;;5099166;28;20123;-76
2021/12/24 15:15:14;;;;;;;2.10;0.57;;;;;;;;;;5083526;28;20386;-77
2021/12/24 15:17:41;;;;;;;3.50;0.77;;;;;;;;;;5108393;28;20100;-76
2021/12/24 15:20:08;;;;;;;4.88;0.90;;;;;;;;;;5104230;28;20028;-76
2021/12/24 15:22:34;;;;;;;7.28;0.98;;;;;;;;;;5098559;28;20508;-76
2021/12/24 15:25:00;;;;;;;2.78;0.63;;;;;;;;;;5103821;28;20048;-76
2021/12/24 15:27:31;;;;;;;4.18;1.10;;;;;;;;;;5099370;28;20043;-76
2021/12/24 15:29:58;;;;;;;2.92;1.00;;;;;;;;;;5105283;28;20039;-76
2021/12/24 15:32:25;;;;;;;3.22;0.60;;;;;;;;;;5086851;28;20496;-77
2021/12/24 15:34:51;;;;;;;2.00;0.80;;;;;;;;;;5103622;28;20039;-77
2021/12/24 15:37:17;;;;;;;4.05;1.20;;;;;;;;;;5086762;28;20126;-77
2021/12/24 15:39:43;;;;;;;2.33;1.15;;;;;;;;;;5108291;28;20405;-77
2021/12/24 15:42:10;;;;;;;5.13;1.80;;;;;;;;;;5083879;28;20558;-76
2021/12/24 15:44:41;;;;;;;3.42;1.80;;;;;;;;;;5098760;28;20117;-76
2021/12/24 15:47:08;;;;;;;4.85;1.38;;;;;;;;;;5101339;28;20427;-76
2021/12/24 15:49:34;;;;;;;6.85;1.73;;;;;;;;;;5109022;28;20402;-77
2021/12/24 15:52:00;;;;;;;6.30;1.40;;;;;;;;;;5100456;28;20049;-76
2021/12/24 15:54:26;;;;;;;2.40;1.00;;;;;;;;;;5101392;28;20027;-76
2021/12/24 15:56:52;;;;;;;4.43;0.85;;;;;;;;;;5097662;28;20023;-76
2021/12/24 15:59:18;;;;;;;3.65;0.98;;;;;;;;;;5100242;28;20016;-77
2021/12/24 16:01:44;;;;;;;3.28;0.70;;;;;;;;;;5102350;28;20023;-76
2021/12/24 16:04:11;;;;;;;5.22;0.40;;;;;;;;;;5098541;28;20028;-76
2021/12/24 16:06:37;;;;;;;6.28;1.08;;;;;;;;;;5086583;28;20114;-76
2021/12/24 16:09:03;;;;;;;7.78;1.40;;;;;;;;;;5102391;28;20038;-77
2021/12/24 16:11:29;;;;;;;3.45;0.88;;;;;;;;;;5106095;27;20016;-77
2021/12/24 16:13:55;;;;;;;5.32;1.50;;;;;;;;;;5098825;28;20031;-77
2021/12/24 16:16:24;;;;;;;3.70;1.52;;;;;;;;;;5087134;28;20027;-76
2021/12/24 16:18:50;;;;;;;7.43;0.82;;;;;;;;;;5086484;28;20062;-76
2021/12/24 16:21:17;;;;;;;3.20;0.90;;;;;;;;;;5105053;28;20039;-78
2021/12/24 16:23:43;;;;;;;5.85;0.70;;;;;;;;;;5106554;28;20193;-79
2021/12/24 16:26:09;;;;;;;5.40;1.70;;;;;;;;;;5105622;27;20032;-79
2021/12/24 16:28:36;;;;;;;11.45;3.58;;;;;;;;;;5104492;28;20047;-79
2021/12/24 16:31:02;;;;;;;8.85;3.03;;;;;;;;;;5098496;28;20067;-78
2021/12/24 16:33:28;;;;;;;5.97;1.77;;;;;;;;;;5103587;28;20024;-79